Terminal Aerodrome Forecast
Issued by NWS

Home | Current Version | Previous Version | Text Only | Print | Product List | Glossary On
Versions: 1 2 3 4 5 6 7 8 9 10 11 12 13 14 15 16
000
FTUS44 KTSA 201126
TAFMLC
TAF
KMLC 201126Z 2012/2112 18014G23KT 6SM -SHRA OVC025
      TEMPO 2012/2016 3SM TSRA BR OVC010CB
     FM201600 19013KT 4SM -TSRA BR OVC020CB
     FM201900 36017G26KT 4SM -RA BR OVC015
     FM210400 36017G26KT P6SM VCSH OVC020=

USA.gov is the U.S. government's official web portal to all federal, state and local government web resources and services.